1862 NOT_NAMED (1862080S09082)


IBTrACS version v04r00. Visit IBTrACS website for data access.
Please direct all questions to the IBTrACS Q and A forum

Storm track - Intensity - Wind Radii - Intensity Data - Source Data - All data

Summary Information

Storm ID 1862080S09082
Start Mar 21 06Z
End Mar 27 06Z
ATCF IDs
Track status Best track data.
Spur track This storm is a spur track associated with the main storm: 1862080S09082

Storm track plot

Map of storm track

Intensity plots

No Intensity information for this storm


Radial wind information

No radial wind information for this storm


Position and Intensity Table

BASIN ISO_TIME_________ NATURE LAT LON
degrees north degrees east
SI 1862-03-21 06:00:00 NR -9.20 82.10
SI 09:00:00 NR -9.31 81.98
SI 12:00:00 NR -9.42 81.86
SI 15:00:00 NR -9.52 81.74
SI 18:00:00 NR -9.64 81.62
SI 21:00:00 NR -9.75 81.49
SI 1862-03-22 00:00:00 NR -9.86 81.37
SI 03:00:00 NR -9.98 81.23
SI 06:00:00 NR -10.10 81.10
SI 09:00:00 NR -10.22 80.96
SI 12:00:00 NR -10.35 80.82
SI 15:00:00 NR -10.48 80.67
SI 18:00:00 NR -10.62 80.52
SI 21:00:00 NR -10.76 80.37
SI 1862-03-23 00:00:00 NR -10.90 80.22
SI 03:00:00 NR -11.05 80.06
SI 06:00:00 NR -11.20 79.90
SI 09:00:00 NR -11.33 79.76
SI 12:00:00 NR -11.47 79.61
SI 15:00:00 NR -11.60 79.46
SI 18:00:00 NR -11.75 79.31
SI 21:00:00 NR -11.91 79.15
SI 1862-03-24 00:00:00 NR -12.09 78.98
SI 03:00:00 NR -12.28 78.80
SI 06:00:00 NR -12.50 78.60
SI 09:00:00 NR -12.74 78.38
SI 12:00:00 NR -13.00 78.15
SI 15:00:00 NR -13.28 77.91
SI 18:00:00 NR -13.57 77.66
SI 21:00:00 NR -13.89 77.40
SI 1862-03-25 00:00:00 NR -14.21 77.13
SI 03:00:00 NR -14.55 76.87
SI 06:00:00 NR -14.90 76.60
SI 09:00:00 NR -15.29 76.31
SI 12:00:00 NR -15.69 76.02
SI 15:00:00 NR -16.10 75.73
SI 18:00:00 NR -16.51 75.44
SI 21:00:00 NR -16.91 75.17
SI 1862-03-26 00:00:00 NR -17.28 74.92
SI 03:00:00 NR -17.61 74.69
SI 06:00:00 NR -17.90 74.50
SI 09:00:00 NR -18.14 74.35
SI 12:00:00 NR -18.32 74.23
SI 15:00:00 NR -18.47 74.14
SI 18:00:00 NR -18.57 74.08
SI 21:00:00 NR -18.66 74.05
SI 1862-03-27 00:00:00 NR -18.71 74.02
SI 03:00:00 NR -18.76 74.01
SI 06:00:00 NR -18.80 74.00

Source Information

Agency Information
USA
TOKYO
CMA
HKO
NEWDELHI
REUNION WMO-Best-Tracks.txt:Line=461:xxxx862067
BOM
NADI
WELLINGTON
DS824
TD9636
TD9635
NEUMANN
MLC

All available IBTrACS Data

SEASON BASIN SUBBASIN ISO_TIME_________ NATURE LAT LON WMO AGENCY DIST2LAND LANDFALL IFLAG USA SSHS REUNION LAT REUNION LON REUNION TYPE REUNION TNUM STORM SPEED STORM DIR
Year degrees north degrees east km km 1 degrees north degrees east 1 kts degrees
1862 SI MM 1862-03-21 06:00:00 NR -9.20 82.10 1700 1699 _____O________ -1 -9.20 82.10 99 9.90 3 227
1862 SI MM 09:00:00 NR -9.31 81.98 1710 1709 _____P________ -1 -9.31 81.98 99 3 227
1862 SI MM 12:00:00 NR -9.42 81.86 1720 1719 _____P________ -1 -9.42 81.86 99 3 228
1862 SI MM 15:00:00 NR -9.52 81.74 1729 1729 _____P________ -1 -9.52 81.74 99 3 228
1862 SI MM 18:00:00 NR -9.64 81.62 1740 1740 _____P________ -1 -9.64 81.62 99 3 228
1862 SI MM 21:00:00 NR -9.75 81.49 1750 1750 _____P________ -1 -9.75 81.49 99 3 227
1862 SI MM 1862-03-22 00:00:00 NR -9.86 81.37 1772 1772 _____P________ -1 -9.86 81.37 99 3 227
1862 SI MM 03:00:00 NR -9.98 81.23 1782 1782 _____P________ -1 -9.98 81.23 99 4 228
1862 SI MM 06:00:00 NR -10.10 81.10 1793 1793 _____O________ -1 -10.10 81.10 99 9.90 4 227
1862 SI MM 09:00:00 NR -10.22 80.96 1804 1804 _____P________ -1 -10.22 80.96 99 4 228
1862 SI MM 12:00:00 NR -10.35 80.82 1826 1826 _____P________ -1 -10.35 80.82 99 4 228
1862 SI MM 15:00:00 NR -10.48 80.67 1837 1837 _____P________ -1 -10.48 80.67 99 4 227
1862 SI MM 18:00:00 NR -10.62 80.52 1848 1848 _____P________ -1 -10.62 80.52 99 4 227
1862 SI MM 21:00:00 NR -10.76 80.37 1871 1871 _____P________ -1 -10.76 80.37 99 4 227
1862 SI MM 1862-03-23 00:00:00 NR -10.90 80.22 1882 1882 _____P________ -1 -10.90 80.22 99 4 227
1862 SI MM 03:00:00 NR -11.05 80.06 1894 1894 _____P________ -1 -11.05 80.06 99 4 226
1862 SI MM 06:00:00 NR -11.20 79.90 reunion 1917 1917 _____O________ -1 -11.20 79.90 99 9.90 4 227
1862 SI MM 09:00:00 NR -11.33 79.76 1929 1929 _____P________ -1 -11.33 79.76 99 4 227
1862 SI MM 12:00:00 NR -11.47 79.61 1952 1952 _____P________ -1 -11.47 79.61 99 4 226
1862 SI MM 15:00:00 NR -11.60 79.46 1964 1964 _____P________ -1 -11.60 79.46 99 4 226
1862 SI MM 18:00:00 NR -11.75 79.31 1988 1988 _____P________ -1 -11.75 79.31 99 4 225
1862 SI MM 21:00:00 NR -11.91 79.15 2001 2001 _____P________ -1 -11.91 79.15 99 5 224
1862 SI MM 1862-03-24 00:00:00 NR -12.09 78.98 2024 2024 _____P________ -1 -12.09 78.98 99 5 223
1862 SI MM 03:00:00 NR -12.28 78.80 2048 2048 _____P________ -1 -12.28 78.80 99 6 222
1862 SI MM 06:00:00 NR -12.50 78.60 reunion 2073 2073 _____O________ -1 -12.50 78.60 99 9.90 6 221
1862 SI MM 09:00:00 NR -12.74 78.38 2098 2098 _____P________ -1 -12.74 78.38 99 7 221
1862 SI MM 12:00:00 NR -13.00 78.15 2134 2134 _____P________ -1 -13.00 78.15 99 7 221
1862 SI MM 15:00:00 NR -13.28 77.91 2171 2171 _____P________ -1 -13.28 77.91 99 8 220
1862 SI MM 18:00:00 NR -13.57 77.66 2208 2201 _____P________ -1 -13.57 77.66 99 8 219
1862 SI MM 21:00:00 NR -13.89 77.40 2201 2158 _____P________ -1 -13.89 77.40 99 8 219
1862 SI MM 1862-03-25 00:00:00 NR -14.21 77.13 2158 2126 _____P________ -1 -14.21 77.13 99 8 218
1862 SI MM 03:00:00 NR -14.55 76.87 2122 2080 _____P________ -1 -14.55 76.87 99 9 217
1862 SI MM 06:00:00 NR -14.90 76.60 reunion 2080 2035 _____O________ -1 -14.90 76.60 99 9.90 9 216
1862 SI MM 09:00:00 NR -15.29 76.31 2035 1991 _____P________ -1 -15.29 76.31 99 10 215
1862 SI MM 12:00:00 NR -15.69 76.02 1991 1947 _____P________ -1 -15.69 76.02 99 10 215
1862 SI MM 15:00:00 NR -16.10 75.73 1947 1914 _____P________ -1 -16.10 75.73 99 10 214
1862 SI MM 18:00:00 NR -16.51 75.44 1904 1871 _____P________ -1 -16.51 75.44 99 10 214
1862 SI MM 21:00:00 NR -16.91 75.17 1871 1830 _____P________ -1 -16.91 75.17 99 9 213
1862 SI MM 1862-03-26 00:00:00 NR -17.28 74.92 1830 1802 _____P________ -1 -17.28 74.92 99 8 213
1862 SI MM 03:00:00 NR -17.61 74.69 1802 1774 _____P________ -1 -17.61 74.69 99 7 213
1862 SI MM 06:00:00 NR -17.90 74.50 reunion 1774 1759 _____O________ -1 -17.90 74.50 99 9.90 6 212
1862 SI MM 09:00:00 NR -18.14 74.35 1749 1734 _____P________ -1 -18.14 74.35 99 5 211
1862 SI MM 12:00:00 NR -18.32 74.23 1734 1720 _____P________ -1 -18.32 74.23 99 4 211
1862 SI MM 15:00:00 NR -18.47 74.14 1720 1718 _____P________ -1 -18.47 74.14 99 3 209
1862 SI MM 18:00:00 NR -18.57 74.08 1718 1706 _____P________ -1 -18.57 74.08 99 2 207
1862 SI MM 21:00:00 NR -18.66 74.05 1706 1706 _____P________ -1 -18.66 74.05 99 2 203
1862 SI MM 1862-03-27 00:00:00 NR -18.71 74.02 1706 1705 _____P________ -1 -18.71 74.02 99 1 199
1862 SI MM 03:00:00 NR -18.76 74.01 1705 1705 _____P________ -1 -18.76 74.01 99 1 196
1862 SI MM 06:00:00 NR -18.80 74.00 reunion 1705 _____O________ -1 -18.80 74.00 99 9.90 1 190